createdAt,value
2024-02-19T00:01:55.344Z,90.31
2024-02-19T00:04:24.100Z,90.35
2024-02-19T00:06:53.188Z,90.71
2024-02-19T00:09:21.687Z,90.81
2024-02-19T00:11:50.177Z,91.11
2024-02-19T00:14:18.724Z,90.59
2024-02-19T00:16:48.442Z,91.18
2024-02-19T00:19:17.130Z,91.54
2024-02-19T00:21:45.683Z,91.12
2024-02-19T00:24:14.571Z,90.17
2024-02-19T00:26:43.149Z,90.10
2024-02-19T00:29:12.206Z,90.48
2024-02-19T00:31:40.606Z,90.53
2024-02-19T00:34:09.004Z,90.39
2024-02-19T00:36:37.444Z,90.98
2024-02-19T00:39:06.107Z,91.35
2024-02-19T00:41:34.393Z,91.00
2024-02-19T00:44:02.996Z,91.29
2024-02-19T00:46:31.429Z,90.91
2024-02-19T00:48:59.786Z,91.00
2024-02-19T00:51:28.292Z,91.12
2024-02-19T00:53:56.638Z,91.08
2024-02-19T00:56:24.931Z,90.82
2024-02-19T00:58:53.152Z,90.96
2024-02-19T01:01:21.505Z,91.41
2024-02-19T01:03:49.884Z,91.83
2024-02-19T01:06:18.404Z,92.00
2024-02-19T01:08:47.061Z,91.93
2024-02-19T01:11:15.427Z,91.86
2024-02-19T01:13:43.762Z,91.66
2024-02-19T01:16:12.118Z,91.64
2024-02-19T01:18:41.031Z,91.64
2024-02-19T01:21:09.390Z,91.21
2024-02-19T01:23:37.827Z,90.53
2024-02-19T01:26:06.123Z,91.60
2024-02-19T01:28:34.425Z,91.50
2024-02-19T01:31:02.896Z,91.75
2024-02-19T01:33:31.362Z,92.01
2024-02-19T01:35:59.954Z,92.29
2024-02-19T01:38:28.511Z,92.13
2024-02-19T01:40:56.905Z,92.28
2024-02-19T01:43:25.368Z,91.94
2024-02-19T01:45:54.264Z,91.70
2024-02-19T01:48:23.215Z,91.57
2024-02-19T01:50:52.065Z,91.63
2024-02-19T01:53:20.510Z,90.76
2024-02-19T01:55:49.729Z,90.92
2024-02-19T01:58:19.035Z,91.31
2024-02-19T02:00:49.658Z,91.23
2024-02-19T02:03:22.710Z,91.12
2024-02-19T02:05:51.414Z,90.90
2024-02-19T02:08:20.880Z,90.76
2024-02-19T02:10:49.311Z,90.97
2024-02-19T02:13:20.040Z,90.91
2024-02-19T02:15:48.549Z,90.88
2024-02-19T02:18:17.202Z,90.72
2024-02-19T02:20:46.135Z,90.76
2024-02-19T02:23:16.065Z,90.26
2024-02-19T02:25:44.445Z,90.14
2024-02-19T02:28:12.875Z,89.87
2024-02-19T02:30:41.511Z,89.85
2024-02-19T02:33:09.904Z,90.22
2024-02-19T02:35:38.469Z,90.66
2024-02-19T02:38:07.377Z,90.62
2024-02-19T02:40:36.936Z,90.80
2024-02-19T02:43:05.442Z,90.54
2024-02-19T02:45:34.094Z,91.12
2024-02-19T02:48:02.655Z,90.98
2024-02-19T02:50:31.023Z,90.96
2024-02-19T02:52:59.389Z,90.91
2024-02-19T02:55:27.912Z,90.97
2024-02-19T02:57:56.437Z,91.22
2024-02-19T03:00:24.850Z,90.98
2024-02-19T03:02:53.234Z,91.36
2024-02-19T03:05:21.714Z,91.28
2024-02-19T03:07:50.091Z,91.25
2024-02-19T03:10:19.004Z,91.18
2024-02-19T03:12:47.913Z,91.05
2024-02-19T03:15:16.249Z,90.75
2024-02-19T03:17:44.524Z,90.62
2024-02-19T03:20:14.862Z,90.62
2024-02-19T03:22:43.564Z,90.54
2024-02-19T03:25:12.180Z,91.03
2024-02-19T03:27:41.557Z,91.08
2024-02-19T03:30:10.993Z,91.02
2024-02-19T03:32:39.576Z,91.28
2024-02-19T03:35:08.520Z,91.06
2024-02-19T03:37:37.106Z,90.75
2024-02-19T03:40:08.161Z,90.39
2024-02-19T03:42:36.776Z,90.65
2024-02-19T03:45:09.096Z,91.03
2024-02-19T03:47:37.643Z,89.87
2024-02-19T03:50:06.567Z,90.07
2024-02-19T03:52:35.147Z,90.39
2024-02-19T03:55:04.124Z,90.76
2024-02-19T03:57:32.673Z,90.66
2024-02-19T04:00:01.138Z,90.69
2024-02-19T04:02:29.509Z,90.03
2024-02-19T04:04:58.014Z,90.02
2024-02-19T04:07:26.573Z,89.70
2024-02-19T04:09:55.048Z,90.31
2024-02-19T04:12:23.349Z,90.38
2024-02-19T04:14:51.709Z,90.70
2024-02-19T04:17:20.156Z,91.10
2024-02-19T04:19:48.740Z,90.80
2024-02-19T04:22:17.329Z,90.33
2024-02-19T04:24:45.857Z,90.49
2024-02-19T04:27:15.776Z,90.77
2024-02-19T04:29:44.062Z,90.53
2024-02-19T04:32:12.377Z,90.50
2024-02-19T04:34:41.182Z,90.52
2024-02-19T04:37:09.900Z,90.35
2024-02-19T04:39:38.481Z,90.92
2024-02-19T04:42:06.939Z,91.11
2024-02-19T04:44:35.279Z,91.54
2024-02-19T04:47:03.736Z,91.68
2024-02-19T04:49:32.190Z,91.50
2024-02-19T04:52:01.459Z,91.17
2024-02-19T04:54:29.912Z,91.23
2024-02-19T04:56:58.348Z,91.39
2024-02-19T04:59:26.892Z,91.33
2024-02-19T05:01:56.707Z,91.42
2024-02-19T05:04:25.975Z,91.76
2024-02-19T05:06:57.470Z,91.92
2024-02-19T05:09:25.718Z,91.47
2024-02-19T05:11:54.035Z,91.55
2024-02-19T05:14:22.636Z,91.69
2024-02-19T05:16:50.952Z,93.91
2024-02-19T05:19:19.474Z,93.87
2024-02-19T05:21:48.904Z,90.81
2024-02-19T05:24:18.967Z,89.67
2024-02-19T05:26:47.647Z,92.39
2024-02-19T05:29:16.045Z,89.51
2024-02-19T05:31:44.505Z,87.98
2024-02-19T05:34:12.927Z,87.69
2024-02-19T05:36:41.427Z,87.71
2024-02-19T05:39:12.204Z,87.63
2024-02-19T05:41:41.143Z,87.77
2024-02-19T05:44:11.112Z,87.57
2024-02-19T05:46:39.634Z,87.49
2024-02-19T05:49:08.146Z,87.63
2024-02-19T05:51:36.845Z,87.72
2024-02-19T05:54:05.959Z,87.70
2024-02-19T05:56:34.869Z,87.77
2024-02-19T05:59:03.408Z,87.48
2024-02-19T06:01:31.993Z,87.52
2024-02-19T06:04:00.519Z,87.18
2024-02-19T06:06:28.815Z,87.31
2024-02-19T06:08:57.344Z,87.12
2024-02-19T06:11:26.912Z,87.13
2024-02-19T06:13:55.688Z,87.13
2024-02-19T06:16:24.558Z,87.49
2024-02-19T06:18:53.811Z,87.35
2024-02-19T06:21:23.438Z,87.31
2024-02-19T06:23:52.242Z,86.85
2024-02-19T06:26:20.664Z,86.89
2024-02-19T06:28:48.927Z,86.88
2024-02-19T06:31:17.719Z,86.78
2024-02-19T06:33:46.373Z,86.86
2024-02-19T06:36:15.001Z,86.74
2024-02-19T06:38:43.320Z,86.72
2024-02-19T06:41:11.630Z,86.69
2024-02-19T06:43:40.056Z,86.66
2024-02-19T06:46:10.406Z,86.68
2024-02-19T06:48:39.247Z,86.86
2024-02-19T06:51:07.684Z,86.96
2024-02-19T06:53:36.144Z,87.06
2024-02-19T06:56:04.782Z,86.54
2024-02-19T06:58:33.166Z,86.57
2024-02-19T07:01:03.376Z,86.65
2024-02-19T07:03:31.877Z,86.69
2024-02-19T07:06:00.294Z,86.84
2024-02-19T07:08:28.586Z,87.97
2024-02-19T07:10:56.906Z,87.17
2024-02-19T07:13:25.690Z,86.35
2024-02-19T07:15:54.156Z,85.70
2024-02-19T07:18:23.260Z,85.07
2024-02-19T07:20:51.699Z,85.14
2024-02-19T07:23:20.047Z,85.26
2024-02-19T07:25:48.339Z,85.65
2024-02-19T07:28:16.597Z,85.48
2024-02-19T07:30:45.014Z,85.62
2024-02-19T07:33:13.394Z,85.19
2024-02-19T07:35:41.837Z,85.04
2024-02-19T07:38:10.290Z,85.18
2024-02-19T07:40:39.160Z,84.58
2024-02-19T07:43:07.697Z,84.28
2024-02-19T07:45:36.364Z,84.84
2024-02-19T07:48:07.573Z,84.98
2024-02-19T07:50:36.570Z,84.57
2024-02-19T07:53:05.099Z,83.69
2024-02-19T07:55:33.575Z,83.37
2024-02-19T07:58:02.024Z,82.70
2024-02-19T08:00:30.425Z,82.63
2024-02-19T08:02:58.895Z,83.73
2024-02-19T08:05:27.300Z,83.71
2024-02-19T08:07:55.696Z,82.98
2024-02-19T08:10:24.336Z,83.28
2024-02-19T08:12:52.995Z,83.37
2024-02-19T08:15:21.574Z,83.82
2024-02-19T08:17:50.139Z,83.19
2024-02-19T08:20:18.696Z,83.11
2024-02-19T08:22:47.468Z,82.59
2024-02-19T08:25:17.047Z,81.45
2024-02-19T08:27:45.585Z,81.11
2024-02-19T08:30:14.706Z,80.64
2024-02-19T08:32:43.169Z,80.82
2024-02-19T08:35:11.726Z,81.59
2024-02-19T08:37:40.374Z,82.04
2024-02-19T08:40:09.536Z,82.22
2024-02-19T08:42:38.940Z,81.58
2024-02-19T08:45:07.934Z,81.15
2024-02-19T08:47:37.990Z,81.29
2024-02-19T08:50:06.907Z,81.23
2024-02-19T08:52:35.463Z,80.55
2024-02-19T08:55:04.125Z,79.89
2024-02-19T08:57:32.561Z,77.75
2024-02-19T09:00:00.922Z,77.56
2024-02-19T09:02:29.342Z,76.85
2024-02-19T09:04:57.795Z,76.49
2024-02-19T09:07:26.215Z,75.60
2024-02-19T09:09:55.150Z,76.19
2024-02-19T09:12:24.754Z,74.41
2024-02-19T09:14:53.666Z,71.75
2024-02-19T09:17:23.960Z,69.28
2024-02-19T09:19:52.706Z,70.43
2024-02-19T09:22:21.781Z,69.62
2024-02-19T09:24:51.764Z,68.40
2024-02-19T09:27:20.258Z,69.14
2024-02-19T09:29:48.980Z,68.74
2024-02-19T09:32:17.279Z,65.84
2024-02-19T09:34:45.865Z,65.85
2024-02-19T09:37:14.534Z,64.44
2024-02-19T09:39:44.026Z,61.22
2024-02-19T09:42:12.494Z,60.49
2024-02-19T09:44:40.947Z,61.22
2024-02-19T09:47:09.784Z,57.97
2024-02-19T09:49:38.756Z,56.41
2024-02-19T09:52:10.793Z,54.36
2024-02-19T09:54:39.241Z,52.09
2024-02-19T09:57:11.900Z,50.60
2024-02-19T09:59:43.473Z,49.43
2024-02-19T10:02:19.994Z,47.94
2024-02-19T10:04:49.655Z,46.24
2024-02-19T10:07:21.836Z,47.19
2024-02-19T10:09:51.096Z,44.70
2024-02-19T10:12:20.771Z,42.92
2024-02-19T10:14:49.347Z,41.29
2024-02-19T10:17:22.948Z,40.44
2024-02-19T10:20:07.820Z,39.79
2024-02-19T10:22:36.488Z,38.79
2024-02-19T10:25:08.892Z,37.30
2024-02-19T10:27:39.198Z,35.79
2024-02-19T10:30:14.197Z,35.41
2024-02-19T10:32:42.832Z,34.08
2024-02-19T10:35:11.480Z,35.58
2024-02-19T10:37:39.958Z,34.81
2024-02-19T10:40:10.263Z,33.86
2024-02-19T10:42:39.744Z,34.14
2024-02-19T10:45:10.184Z,33.97
2024-02-19T10:47:39.865Z,33.68
2024-02-19T10:50:09.619Z,33.38
2024-02-19T10:52:43.151Z,32.55
2024-02-19T10:55:19.920Z,31.70
2024-02-19T10:57:54.886Z,31.72
2024-02-19T11:00:26.787Z,31.45
2024-02-19T11:03:09.287Z,31.45
2024-02-19T11:05:45.880Z,31.44
2024-02-19T11:08:21.411Z,32.49
2024-02-19T11:10:54.426Z,32.54
2024-02-19T11:13:28.261Z,33.55
2024-02-19T11:15:57.080Z,33.10
2024-02-19T11:18:25.633Z,34.08
2024-02-19T11:20:54.060Z,34.51
2024-02-19T11:23:22.383Z,35.15
2024-02-19T11:25:50.945Z,36.21
2024-02-19T11:28:19.248Z,36.69
2024-02-19T11:30:48.180Z,37.43
2024-02-19T11:33:16.798Z,38.04
2024-02-19T11:35:45.461Z,38.11
2024-02-19T11:38:14.080Z,39.27
2024-02-19T11:40:43.621Z,39.26
2024-02-19T11:43:12.780Z,40.13
2024-02-19T11:45:41.494Z,42.55
2024-02-19T11:48:10.599Z,41.73
2024-02-19T11:50:41.266Z,43.67
2024-02-19T11:53:11.879Z,44.11
2024-02-19T11:55:41.122Z,44.25
2024-02-19T11:58:10.607Z,44.70
2024-02-19T12:00:39.282Z,45.22
2024-02-19T12:03:07.657Z,46.09
2024-02-19T12:05:36.202Z,46.35
2024-02-19T12:08:05.440Z,45.85
2024-02-19T12:10:33.944Z,47.61
2024-02-19T12:13:02.440Z,47.28
2024-02-19T12:15:30.849Z,47.90
2024-02-19T12:17:59.507Z,47.43
2024-02-19T12:20:27.903Z,48.24
2024-02-19T12:22:56.288Z,47.89
2024-02-19T12:25:27.070Z,48.02
2024-02-19T12:27:55.734Z,48.58
2024-02-19T12:30:24.607Z,47.48
2024-02-19T12:32:56.190Z,47.40
2024-02-19T12:35:24.809Z,47.28
2024-02-19T12:37:53.457Z,47.80
2024-02-19T12:40:22.111Z,48.66
2024-02-19T12:42:50.631Z,49.01
2024-02-19T12:45:19.074Z,49.01
2024-02-19T12:47:47.563Z,48.87
2024-02-19T12:50:17.333Z,49.37
2024-02-19T12:52:46.060Z,49.77
2024-02-19T12:55:17.741Z,49.27
2024-02-19T12:57:47.870Z,49.82
2024-02-19T13:00:16.606Z,50.20
2024-02-19T13:02:45.521Z,49.77
2024-02-19T13:05:14.085Z,50.22
2024-02-19T13:07:43.726Z,49.85
2024-02-19T13:10:12.072Z,50.09
2024-02-19T13:12:40.634Z,51.24
2024-02-19T13:15:09.441Z,51.31
2024-02-19T13:17:43.139Z,51.22
2024-02-19T13:20:16.608Z,50.56
2024-02-19T13:22:45.386Z,50.27
2024-02-19T13:25:13.944Z,50.33
2024-02-19T13:27:42.517Z,49.09
2024-02-19T13:30:11.952Z,49.74
2024-02-19T13:32:40.598Z,50.22
2024-02-19T13:35:12.695Z,50.76
2024-02-19T13:37:42.746Z,51.41
2024-02-19T13:40:12.436Z,51.47
2024-02-19T13:42:41.840Z,52.21
2024-02-19T13:45:10.751Z,53.07
2024-02-19T13:47:40.748Z,52.08
2024-02-19T13:50:12.506Z,52.49
2024-02-19T13:52:41.170Z,52.23
2024-02-19T13:55:10.006Z,50.97
2024-02-19T13:57:38.614Z,50.25
2024-02-19T14:00:08.061Z,48.77
2024-02-19T14:02:36.813Z,49.39
2024-02-19T14:05:05.688Z,50.08
2024-02-19T14:07:34.303Z,49.83
2024-02-19T14:10:03.046Z,49.44
2024-02-19T14:12:31.409Z,50.53
2024-02-19T14:15:00.668Z,51.15
2024-02-19T14:17:30.179Z,51.55
2024-02-19T14:20:00.277Z,52.17
2024-02-19T14:22:28.955Z,52.24
2024-02-19T14:24:57.494Z,52.64
2024-02-19T14:27:25.931Z,51.05
2024-02-19T14:29:55.151Z,49.92
2024-02-19T14:32:23.528Z,50.63
2024-02-19T14:34:52.951Z,50.25
2024-02-19T14:37:21.581Z,50.00
2024-02-19T14:39:51.481Z,49.62
2024-02-19T14:42:21.256Z,49.98
2024-02-19T14:44:49.670Z,49.69
2024-02-19T14:47:18.075Z,50.22
2024-02-19T14:49:46.494Z,50.44
2024-02-19T14:52:14.808Z,50.62
2024-02-19T14:54:43.147Z,50.65
2024-02-19T14:57:11.708Z,50.96
2024-02-19T14:59:41.659Z,50.90
2024-02-19T15:02:10.494Z,50.54
2024-02-19T15:04:38.908Z,50.14
2024-02-19T15:07:07.681Z,50.88
2024-02-19T15:09:36.395Z,50.77
2024-02-19T15:12:05.048Z,51.52
2024-02-19T15:14:34.219Z,51.90
2024-02-19T15:17:03.614Z,52.24
2024-02-19T15:19:32.120Z,51.57
2024-02-19T15:22:00.570Z,52.14
2024-02-19T15:24:29.145Z,52.62
2024-02-19T15:26:57.472Z,52.89
2024-02-19T15:29:27.293Z,53.11
2024-02-19T15:31:55.688Z,53.19
2024-02-19T15:34:24.382Z,53.50
2024-02-19T15:36:52.784Z,54.20
2024-02-19T15:39:21.442Z,53.94
2024-02-19T15:41:50.735Z,54.24
2024-02-19T15:44:19.061Z,55.28
2024-02-19T15:46:47.431Z,55.04
2024-02-19T15:49:15.783Z,55.18
2024-02-19T15:51:44.056Z,55.10
2024-02-19T15:54:12.581Z,54.72
2024-02-19T15:56:40.846Z,55.56
2024-02-19T15:59:09.469Z,55.94
2024-02-19T16:01:37.957Z,55.93
2024-02-19T16:04:06.391Z,56.11
2024-02-19T16:06:36.712Z,56.06
2024-02-19T16:09:06.732Z,56.48
2024-02-19T16:11:35.069Z,57.70
2024-02-19T16:14:04.643Z,56.49
2024-02-19T16:16:33.508Z,55.45
2024-02-19T16:19:05.005Z,56.71
2024-02-19T16:21:33.499Z,56.38
2024-02-19T16:24:01.784Z,57.96
2024-02-19T16:26:30.375Z,60.01
2024-02-19T16:28:59.251Z,59.67
2024-02-19T16:31:27.607Z,59.68
2024-02-19T16:33:56.039Z,60.89
2024-02-19T16:36:27.572Z,59.18
2024-02-19T16:38:56.328Z,61.34
2024-02-19T16:41:24.740Z,59.07
2024-02-19T16:43:53.382Z,61.08
2024-02-19T16:46:24.866Z,61.14
2024-02-19T16:48:53.445Z,59.35
2024-02-19T16:51:22.429Z,59.04
2024-02-19T16:53:55.216Z,60.60
2024-02-19T16:56:28.058Z,61.14
2024-02-19T16:58:57.099Z,60.50
2024-02-19T17:01:25.595Z,62.78
2024-02-19T17:03:54.267Z,60.95
2024-02-19T17:06:24.500Z,63.89
2024-02-19T17:08:53.019Z,64.13
2024-02-19T17:11:22.890Z,64.82
2024-02-19T17:13:51.725Z,65.88
2024-02-19T17:16:20.585Z,65.54
2024-02-19T17:18:49.452Z,64.31
2024-02-19T17:21:17.824Z,64.10
2024-02-19T17:23:48.162Z,63.10
2024-02-19T17:26:18.495Z,62.03
2024-02-19T17:28:46.974Z,66.38
2024-02-19T17:31:15.421Z,65.86
2024-02-19T17:33:43.764Z,63.57
2024-02-19T17:36:12.225Z,65.91
2024-02-19T17:38:40.463Z,67.27
2024-02-19T17:41:08.862Z,67.90
2024-02-19T17:43:37.179Z,66.25
2024-02-19T17:46:06.166Z,67.96
2024-02-19T17:48:36.921Z,69.84
2024-02-19T17:51:05.832Z,65.45
2024-02-19T17:53:34.151Z,66.22
2024-02-19T17:56:02.373Z,66.54
2024-02-19T17:58:30.679Z,67.59
2024-02-19T18:01:01.895Z,69.24
2024-02-19T18:03:30.480Z,67.64
2024-02-19T18:06:00.111Z,69.90
2024-02-19T18:08:28.993Z,69.22
2024-02-19T18:10:59.018Z,70.42
2024-02-19T18:13:27.857Z,72.35
2024-02-19T18:15:56.593Z,69.10
2024-02-19T18:18:25.323Z,69.67
2024-02-19T18:20:54.369Z,72.55
2024-02-19T18:23:24.551Z,70.09
2024-02-19T18:25:53.069Z,68.42
2024-02-19T18:28:22.382Z,67.55
2024-02-19T18:30:50.920Z,69.88
2024-02-19T18:33:19.378Z,67.66
2024-02-19T18:35:48.434Z,69.35
2024-02-19T18:38:19.011Z,68.54
2024-02-19T18:40:47.610Z,70.32
2024-02-19T18:43:16.381Z,73.30
2024-02-19T18:45:44.980Z,74.28
2024-02-19T18:48:14.704Z,72.83
2024-02-19T18:50:43.401Z,73.45
2024-02-19T18:53:11.912Z,72.66
2024-02-19T18:55:41.487Z,72.15
2024-02-19T18:58:09.912Z,71.44
2024-02-19T19:00:38.696Z,74.49
2024-02-19T19:03:07.306Z,74.06
2024-02-19T19:05:35.902Z,73.30
2024-02-19T19:08:05.076Z,72.75
2024-02-19T19:10:33.841Z,71.05
2024-02-19T19:13:02.510Z,72.60
2024-02-19T19:15:30.998Z,73.23
2024-02-19T19:18:02.483Z,74.69
2024-02-19T19:20:35.165Z,74.77
2024-02-19T19:23:03.821Z,75.05
2024-02-19T19:25:32.572Z,75.03
2024-02-19T19:28:01.377Z,72.77
2024-02-19T19:30:29.924Z,76.09
2024-02-19T19:32:59.745Z,74.75
2024-02-19T19:35:29.075Z,75.20
2024-02-19T19:37:58.308Z,71.75
2024-02-19T19:40:26.770Z,73.41
2024-02-19T19:42:55.441Z,73.53
2024-02-19T19:45:24.937Z,74.95
2024-02-19T19:47:53.686Z,75.52
2024-02-19T19:50:21.945Z,75.11
2024-02-19T19:52:50.485Z,73.47
2024-02-19T19:55:19.260Z,73.89
2024-02-19T19:57:59.702Z,76.47
2024-02-19T20:00:28.596Z,77.91
2024-02-19T20:02:58.404Z,76.72
2024-02-19T20:05:26.998Z,76.97
2024-02-19T20:07:55.395Z,75.25
2024-02-19T20:10:23.813Z,76.72
2024-02-19T20:12:52.614Z,77.33
2024-02-19T20:15:20.933Z,77.92
2024-02-19T20:17:49.576Z,76.59
2024-02-19T20:20:18.329Z,74.68
2024-02-19T20:22:46.670Z,73.88
2024-02-19T20:25:17.095Z,74.75
2024-02-19T20:27:45.597Z,75.05
2024-02-19T20:30:13.954Z,75.56
2024-02-19T20:32:42.231Z,75.19
2024-02-19T20:35:10.835Z,75.22
2024-02-19T20:37:40.568Z,75.48
2024-02-19T20:40:09.816Z,74.96
2024-02-19T20:42:38.272Z,75.31
2024-02-19T20:45:07.258Z,76.64
2024-02-19T20:47:37.114Z,74.61
2024-02-19T20:50:06.341Z,77.80
2024-02-19T20:52:35.459Z,80.37
2024-02-19T20:55:06.119Z,76.95
2024-02-19T20:57:39.084Z,79.18
2024-02-19T21:00:08.066Z,78.88
2024-02-19T21:02:42.005Z,76.87
2024-02-19T21:05:14.070Z,80.79
2024-02-19T21:07:45.676Z,78.40
2024-02-19T21:10:14.567Z,77.64
2024-02-19T21:12:43.639Z,79.78
2024-02-19T21:15:11.908Z,80.23
2024-02-19T21:17:40.196Z,79.72
2024-02-19T21:20:11.139Z,79.79
2024-02-19T21:22:39.807Z,78.73
2024-02-19T21:25:09.161Z,78.29
2024-02-19T21:27:37.917Z,76.80
2024-02-19T21:30:07.811Z,74.90
2024-02-19T21:32:36.889Z,74.66
2024-02-19T21:35:08.220Z,74.46
2024-02-19T21:37:36.669Z,74.54
2024-02-19T21:40:05.965Z,75.29
2024-02-19T21:42:37.172Z,74.92
2024-02-19T21:45:07.478Z,75.55
2024-02-19T21:47:37.644Z,76.11
2024-02-19T21:50:09.698Z,76.88
2024-02-19T21:52:38.803Z,77.19
2024-02-19T21:55:08.394Z,77.30
2024-02-19T21:57:37.194Z,77.65
2024-02-19T22:00:13.166Z,77.21
2024-02-19T22:02:41.659Z,76.49
2024-02-19T22:05:10.037Z,75.84
2024-02-19T22:07:40.250Z,75.49
2024-02-19T22:10:10.448Z,77.74
2024-02-19T22:12:38.848Z,78.86
2024-02-19T22:15:07.974Z,77.11
2024-02-19T22:17:37.168Z,76.24
2024-02-19T22:20:06.043Z,77.43
2024-02-19T22:22:36.004Z,77.23
2024-02-19T22:25:05.389Z,78.32
2024-02-19T22:27:33.792Z,78.74
2024-02-19T22:30:02.444Z,78.57
2024-02-19T22:32:33.100Z,78.20
2024-02-19T22:35:01.790Z,77.05
2024-02-19T22:37:31.463Z,76.92
2024-02-19T22:39:59.988Z,77.88
2024-02-19T22:42:28.897Z,79.69
2024-02-19T22:44:59.286Z,80.66
2024-02-19T22:47:29.132Z,80.66
2024-02-19T22:49:57.704Z,77.77
2024-02-19T22:52:25.984Z,78.13
2024-02-19T22:54:54.402Z,80.03
2024-02-19T22:57:22.673Z,79.98
2024-02-19T22:59:51.235Z,79.13
2024-02-19T23:02:19.596Z,79.15
2024-02-19T23:04:48.660Z,79.15
2024-02-19T23:07:17.305Z,81.49
2024-02-19T23:09:45.790Z,81.54
2024-02-19T23:12:14.136Z,79.58
2024-02-19T23:14:42.476Z,81.33
2024-02-19T23:17:11.103Z,81.94
2024-02-19T23:19:39.698Z,82.81
2024-02-19T23:22:08.839Z,80.00
2024-02-19T23:24:37.302Z,82.78
2024-02-19T23:27:05.789Z,80.32
2024-02-19T23:29:34.721Z,81.24
2024-02-19T23:32:03.202Z,83.85
2024-02-19T23:34:31.863Z,83.89
2024-02-19T23:37:01.034Z,82.83
2024-02-19T23:39:29.366Z,84.40
2024-02-19T23:41:57.837Z,82.82
2024-02-19T23:44:27.803Z,80.85
2024-02-19T23:46:56.228Z,81.31
2024-02-19T23:49:25.012Z,83.12
2024-02-19T23:51:53.457Z,84.98
2024-02-19T23:54:21.935Z,83.61
2024-02-19T23:56:50.773Z,83.26
2024-02-19T23:59:19.112Z,83.60
